Beemerville, New Jersey
Current Conditions -  °F | °C
As of 3:53 AM on Friday 28 Nov 2014 (Local Time) from KFWN Reporting Station
Overcast Overcast  
Wind Chill: 15°   Ceiling: 5500
Heat Index: 21°   Visibility: 10mi
Dew Point: 19°   Wind: 5mph
Humidity: 92%   Direction: 260°W
Pressure: 30.08"   Gusts: NA
Location:  41.2395°N, 74.6087°W
Report Text: KFWN 280853Z AUTO 26004KT 10SM BKN055 OVC100 M06/M07 A3008 RMK AO2 SLP190 I1000 I3000 T10611072 51007
Loading
Personal Weather Stations






























Interactive Weather Map New forecast layout! Learn more

10-Day Weather Forecast

Advertisements
Track Severe Weather on mobile